Kendallville, Iowa
Current Conditions -  °F | °C
As of 12:35 PM on Saturday 25 Oct 2014 (Local Time) from KFKA Reporting Station
Clear Clear  
Wind Chill: 60°   Ceiling: Unl
Heat Index: 60°   Visibility: 10mi
Dew Point: 33°   Wind: 15mph
Humidity: 37%   Direction: 320°NW
Pressure: 30.06"   Gusts: 24mph
Location:  43.363°N, 92.1685°W
Report Text: KFKA 251735Z AUTO 32013G21KT 10SM CLR 15/01 A3006 RMK AO2 T01540006
Loading
Personal Weather Stations






























Interactive Weather Map
Tropical Storm Tracking
New forecast layout! Learn more

10-Day Weather Forecast

Advertisements
Track Severe Weather on mobile